EZY22AB EGNS-LEPA
Flight info
| Callsign | EZY22AB |
|---|---|
| Flight time | 2h 21m |
| Altitude | 37000 |
| Route | KELLY L10 WAL L151 KIDLI UN859 SOPIL DCT ESISI DCT PUMAL N859 TOLSO |
| Aircraft | A320/M-SDE3FGHIRWY/LB1 |
Departure
| Time | 2026-05-08 17:38 |
|---|---|
| Airport | Isle of Man Airport (EGNS) |
Arrival
| Time | 2026-05-08 19:59 |
|---|---|
| Airport | Palma de Mallorca Airport (LEPA) |
| Time | Latitude | Longitude | Altitude | Speed | Heading |
|---|---|---|---|---|---|
| 2026-05-08 17:04 | 54.08590 | -4.63315 | 46 ft | 0 kts | 45° |
| 2026-05-08 17:31 | 54.08580 | -4.63333 | 43 ft | 4 kts | 52° |
| 2026-05-08 17:31 | 54.08566 | -4.63371 | 43 ft | 4 kts | 78° |
| 2026-05-08 17:32 | 54.08568 | -4.63410 | 43 ft | 2 kts | 131° |
| 2026-05-08 17:32 | 54.08569 | -4.63413 | 43 ft | 0 kts | 133° |
| 2026-05-08 17:34 | 54.08567 | -4.63409 | 43 ft | 4 kts | 133° |
| 2026-05-08 17:34 | 54.08542 | -4.63364 | 46 ft | 5 kts | 134° |
| 2026-05-08 17:34 | 54.08501 | -4.63335 | 46 ft | 9 kts | 210° |
| 2026-05-08 17:34 | 54.08461 | -4.63378 | 45 ft | 8 kts | 208° |
| 2026-05-08 17:35 | 54.08378 | -4.63393 | 43 ft | 16 kts | 199° |
| 2026-05-08 17:35 | 54.08344 | -4.63544 | 44 ft | 12 kts | 262° |
| 2026-05-08 17:35 | 54.08315 | -4.63678 | 46 ft | 13 kts | 242° |
| 2026-05-08 17:35 | 54.08269 | -4.63819 | 43 ft | 15 kts | 240° |
| 2026-05-08 17:36 | 54.08226 | -4.63907 | 40 ft | 10 kts | 197° |
| 2026-05-08 17:36 | 54.08144 | -4.63877 | 33 ft | 8 kts | 131° |
| 2026-05-08 17:36 | 54.08147 | -4.63819 | 35 ft | 0 kts | 76° |
| 2026-05-08 17:37 | 54.08147 | -4.63818 | 35 ft | 1 kts | 76° |
| 2026-05-08 17:37 | 54.08191 | -4.63504 | 34 ft | 66 kts | 77° |
| 2026-05-08 17:37 | 54.08331 | -4.62353 | 42 ft | 129 kts | 77° |
| 2026-05-08 17:38 | 54.08549 | -4.60626 | 282 ft | 157 kts | 78° |
| 2026-05-08 17:38 | 54.08779 | -4.58752 | 838 ft | 166 kts | 78° |
| 2026-05-08 17:38 | 54.09024 | -4.56762 | 1307 ft | 181 kts | 78° |
| 2026-05-08 17:38 | 54.09293 | -4.54546 | 1629 ft | 201 kts | 79° |
| 2026-05-08 17:39 | 54.09230 | -4.52077 | 1932 ft | 224 kts | 110° |
| 2026-05-08 17:39 | 54.08236 | -4.49915 | 2337 ft | 248 kts | 148° |
| 2026-05-08 17:39 | 54.06654 | -4.48548 | 3053 ft | 260 kts | 156° |
| 2026-05-08 17:39 | 54.04996 | -4.47285 | 3987 ft | 264 kts | 157° |
| 2026-05-08 17:40 | 54.03295 | -4.46028 | 4936 ft | 268 kts | 157° |
| 2026-05-08 17:40 | 54.01573 | -4.44760 | 5870 ft | 271 kts | 157° |
| 2026-05-08 17:40 | 53.99833 | -4.43464 | 6773 ft | 275 kts | 156° |
| 2026-05-08 17:40 | 53.98070 | -4.42137 | 7669 ft | 279 kts | 156° |
| 2026-05-08 17:41 | 53.96283 | -4.40787 | 8547 ft | 283 kts | 156° |
| 2026-05-08 17:41 | 53.94477 | -4.39417 | 9403 ft | 286 kts | 156° |
| 2026-05-08 17:41 | 53.92646 | -4.38025 | 10183 ft | 294 kts | 155° |
| 2026-05-08 17:41 | 53.90827 | -4.36166 | 10480 ft | 318 kts | 141° |
| 2026-05-08 17:42 | 53.89282 | -4.33360 | 10972 ft | 332 kts | 125° |
| 2026-05-08 17:42 | 53.87973 | -4.30090 | 11693 ft | 338 kts | 124° |
| 2026-05-08 17:42 | 53.86651 | -4.26830 | 12462 ft | 342 kts | 125° |
| 2026-05-08 17:42 | 53.85290 | -4.23507 | 13217 ft | 346 kts | 125° |
| 2026-05-08 17:43 | 53.83905 | -4.20144 | 13924 ft | 349 kts | 125° |
| 2026-05-08 17:43 | 53.82507 | -4.16753 | 14617 ft | 353 kts | 125° |
| 2026-05-08 17:43 | 53.81096 | -4.13328 | 15295 ft | 357 kts | 125° |
| 2026-05-08 17:43 | 53.79668 | -4.09867 | 15961 ft | 360 kts | 125° |
| 2026-05-08 17:44 | 53.78227 | -4.06375 | 16617 ft | 364 kts | 125° |
| 2026-05-08 17:44 | 53.76776 | -4.02851 | 17250 ft | 367 kts | 125° |
| 2026-05-08 17:44 | 53.75310 | -3.99293 | 18373 ft | 371 kts | 128° |
| 2026-05-08 17:44 | 53.73828 | -3.95708 | 18965 ft | 374 kts | 128° |
| 2026-05-08 17:45 | 53.72330 | -3.92096 | 19506 ft | 377 kts | 128° |
| 2026-05-08 17:45 | 53.70817 | -3.88458 | 20046 ft | 381 kts | 128° |
| 2026-05-08 17:45 | 53.69286 | -3.84785 | 20573 ft | 384 kts | 129° |
| 2026-05-08 17:45 | 53.67738 | -3.81077 | 21107 ft | 388 kts | 129° |
| 2026-05-08 17:46 | 53.66198 | -3.77389 | 21609 ft | 392 kts | 129° |
| 2026-05-08 17:46 | 53.64621 | -3.73616 | 22133 ft | 395 kts | 129° |
| 2026-05-08 17:46 | 53.63029 | -3.69815 | 22623 ft | 399 kts | 129° |
| 2026-05-08 17:46 | 53.61423 | -3.65976 | 23111 ft | 403 kts | 129° |
| 2026-05-08 17:47 | 53.59804 | -3.62103 | 23610 ft | 406 kts | 129° |
| 2026-05-08 17:47 | 53.58171 | -3.58203 | 24013 ft | 409 kts | 129° |
| 2026-05-08 17:47 | 53.56518 | -3.54270 | 24408 ft | 413 kts | 129° |
| 2026-05-08 17:47 | 53.55395 | -3.51603 | 24669 ft | 415 kts | 129° |
| 2026-05-08 17:48 | 53.53171 | -3.46330 | 25166 ft | 420 kts | 129° |
| 2026-05-08 17:48 | 53.51475 | -3.42320 | 25556 ft | 423 kts | 130° |
| 2026-05-08 17:48 | 53.49763 | -3.38283 | 25927 ft | 426 kts | 130° |
| 2026-05-08 17:48 | 53.48036 | -3.34219 | 26303 ft | 429 kts | 130° |
| 2026-05-08 17:49 | 53.46297 | -3.30124 | 26661 ft | 432 kts | 130° |
| 2026-05-08 17:49 | 53.45142 | -3.27398 | 26899 ft | 434 kts | 130° |
| 2026-05-08 17:49 | 53.43379 | -3.23261 | 27257 ft | 437 kts | 130° |
| 2026-05-08 17:49 | 53.41603 | -3.19098 | 27619 ft | 440 kts | 130° |
| 2026-05-08 17:50 | 53.39713 | -3.15068 | 27969 ft | 439 kts | 138° |
| 2026-05-08 17:50 | 53.37492 | -3.11597 | 28319 ft | 436 kts | 147° |
| 2026-05-08 17:50 | 53.35024 | -3.08677 | 28662 ft | 435 kts | 151° |
| 2026-05-08 17:50 | 53.32509 | -3.05820 | 29019 ft | 438 kts | 151° |
| 2026-05-08 17:51 | 53.29979 | -3.02943 | 29368 ft | 441 kts | 151° |
| 2026-05-08 17:51 | 53.27435 | -3.00051 | 29696 ft | 444 kts | 151° |
| 2026-05-08 17:51 | 53.24875 | -2.97142 | 30020 ft | 447 kts | 151° |
| 2026-05-08 17:51 | 53.22294 | -2.94214 | 30300 ft | 450 kts | 151° |
| 2026-05-08 17:52 | 53.19696 | -2.91271 | 30561 ft | 452 kts | 151° |
| 2026-05-08 17:52 | 53.17088 | -2.88318 | 30814 ft | 455 kts | 151° |
| 2026-05-08 17:52 | 53.11823 | -2.82362 | 31328 ft | 460 kts | 151° |
| 2026-05-08 17:53 | 53.09170 | -2.79370 | 31568 ft | 462 kts | 151° |
| 2026-05-08 17:53 | 53.06494 | -2.76363 | 31812 ft | 465 kts | 151° |
| 2026-05-08 17:53 | 53.03810 | -2.73354 | 32078 ft | 466 kts | 151° |
| 2026-05-08 17:53 | 53.01123 | -2.70339 | 32430 ft | 466 kts | 151° |
| 2026-05-08 17:54 | 52.98436 | -2.67326 | 32771 ft | 466 kts | 151° |
| 2026-05-08 17:54 | 52.95747 | -2.64323 | 33093 ft | 466 kts | 151° |
| 2026-05-08 17:54 | 52.93055 | -2.61326 | 33432 ft | 466 kts | 151° |
| 2026-05-08 17:54 | 52.90364 | -2.58332 | 33766 ft | 466 kts | 151° |
| 2026-05-08 17:55 | 52.87668 | -2.55333 | 34102 ft | 466 kts | 151° |
| 2026-05-08 17:55 | 52.84977 | -2.52341 | 34404 ft | 466 kts | 151° |
| 2026-05-08 17:55 | 52.82288 | -2.49353 | 34722 ft | 465 kts | 151° |
| 2026-05-08 17:55 | 52.79606 | -2.46374 | 35036 ft | 465 kts | 151° |
| 2026-05-08 17:56 | 52.76922 | -2.43403 | 35340 ft | 464 kts | 151° |
| 2026-05-08 17:56 | 52.74243 | -2.40446 | 35640 ft | 463 kts | 151° |
| 2026-05-08 17:56 | 52.71564 | -2.37496 | 35937 ft | 462 kts | 151° |
| 2026-05-08 17:56 | 52.68923 | -2.34597 | 36065 ft | 462 kts | 151° |
| 2026-05-08 17:57 | 52.66251 | -2.31664 | 36081 ft | 461 kts | 151° |
| 2026-05-08 17:57 | 52.60915 | -2.25796 | 36077 ft | 461 kts | 151° |
| 2026-05-08 17:58 | 52.55573 | -2.19948 | 36077 ft | 461 kts | 151° |
| 2026-05-08 17:58 | 52.50228 | -2.14128 | 36081 ft | 461 kts | 151° |
| 2026-05-08 17:59 | 52.44874 | -2.08322 | 36081 ft | 461 kts | 151° |
| 2026-05-08 17:59 | 52.39516 | -2.02515 | 36084 ft | 462 kts | 151° |
| 2026-05-08 18:00 | 52.34157 | -1.96720 | 36081 ft | 462 kts | 151° |
| 2026-05-08 18:00 | 52.26108 | -1.88056 | 36080 ft | 462 kts | 150° |
| 2026-05-08 18:01 | 52.20773 | -1.82323 | 36076 ft | 462 kts | 150° |
| 2026-05-08 18:01 | 52.15401 | -1.76572 | 36090 ft | 462 kts | 150° |
| 2026-05-08 18:02 | 52.10892 | -1.71769 | 36095 ft | 462 kts | 151° |
| 2026-05-08 18:02 | 52.04644 | -1.65123 | 36091 ft | 462 kts | 150° |
| 2026-05-08 18:03 | 51.99266 | -1.59401 | 36074 ft | 462 kts | 150° |
| 2026-05-08 18:03 | 51.93878 | -1.53715 | 36079 ft | 462 kts | 151° |
| 2026-05-08 18:04 | 51.88482 | -1.48059 | 36083 ft | 462 kts | 151° |
| 2026-05-08 18:04 | 51.83086 | -1.42396 | 36084 ft | 462 kts | 150° |
| 2026-05-08 18:05 | 51.77640 | -1.36892 | 36082 ft | 459 kts | 157° |
| 2026-05-08 18:05 | 51.71707 | -1.33363 | 36080 ft | 453 kts | 167° |
| 2026-05-08 18:06 | 51.65684 | -1.30328 | 36078 ft | 454 kts | 166° |
| 2026-05-08 18:06 | 51.59666 | -1.27274 | 36083 ft | 454 kts | 166° |
| 2026-05-08 18:07 | 51.53638 | -1.24226 | 36085 ft | 454 kts | 166° |
| 2026-05-08 18:07 | 51.47669 | -1.20892 | 36079 ft | 457 kts | 159° |
| 2026-05-08 18:08 | 51.41887 | -1.16634 | 36073 ft | 457 kts | 159° |
| 2026-05-08 18:08 | 51.36110 | -1.12372 | 36081 ft | 457 kts | 159° |
| 2026-05-08 18:09 | 51.30330 | -1.08119 | 36081 ft | 457 kts | 159° |
| 2026-05-08 18:09 | 51.24543 | -1.03886 | 36083 ft | 457 kts | 159° |
| 2026-05-08 18:10 | 51.18795 | -0.99702 | 36084 ft | 457 kts | 159° |
| 2026-05-08 18:10 | 51.13014 | -0.95503 | 36081 ft | 457 kts | 159° |
| 2026-05-08 18:11 | 51.07229 | -0.91303 | 36077 ft | 457 kts | 159° |
| 2026-05-08 18:11 | 51.01443 | -0.87126 | 36075 ft | 457 kts | 159° |
| 2026-05-08 18:12 | 50.95653 | -0.82955 | 36071 ft | 457 kts | 159° |
| 2026-05-08 18:12 | 50.89867 | -0.78785 | 36069 ft | 457 kts | 159° |
| 2026-05-08 18:13 | 50.84175 | -0.74308 | 36074 ft | 460 kts | 150° |
| 2026-05-08 18:13 | 50.78790 | -0.68812 | 36076 ft | 460 kts | 150° |
| 2026-05-08 18:14 | 50.73398 | -0.63336 | 36076 ft | 461 kts | 150° |
| 2026-05-08 18:14 | 50.68006 | -0.57872 | 36078 ft | 460 kts | 150° |
| 2026-05-08 18:15 | 50.62616 | -0.52419 | 36076 ft | 460 kts | 150° |
| 2026-05-08 18:15 | 50.57221 | -0.46980 | 36074 ft | 460 kts | 150° |
| 2026-05-08 18:16 | 50.51823 | -0.41556 | 36073 ft | 460 kts | 150° |
| 2026-05-08 18:16 | 50.46423 | -0.36148 | 36068 ft | 460 kts | 150° |
| 2026-05-08 18:17 | 50.41059 | -0.30791 | 36073 ft | 460 kts | 150° |
| 2026-05-08 18:17 | 50.35661 | -0.25406 | 36073 ft | 460 kts | 150° |
| 2026-05-08 18:18 | 50.30257 | -0.20031 | 36072 ft | 460 kts | 150° |
| 2026-05-08 18:18 | 50.24852 | -0.14664 | 36072 ft | 460 kts | 150° |
| 2026-05-08 18:19 | 50.19441 | -0.09310 | 36073 ft | 460 kts | 150° |
| 2026-05-08 18:19 | 50.14028 | -0.03976 | 36071 ft | 460 kts | 150° |
| 2026-05-08 18:20 | 50.08364 | 0.00556 | 36071 ft | 455 kts | 165° |
| 2026-05-08 18:20 | 50.02312 | 0.03037 | 36070 ft | 453 kts | 169° |
| 2026-05-08 18:21 | 49.96202 | 0.05434 | 36069 ft | 453 kts | 169° |
| 2026-05-08 18:21 | 49.90100 | 0.07833 | 36068 ft | 452 kts | 169° |
| 2026-05-08 18:22 | 49.84004 | 0.10222 | 36064 ft | 452 kts | 169° |
| 2026-05-08 18:22 | 49.77907 | 0.12598 | 36061 ft | 452 kts | 169° |
| 2026-05-08 18:23 | 49.71815 | 0.14963 | 36058 ft | 452 kts | 169° |
| 2026-05-08 18:23 | 49.65719 | 0.17343 | 36060 ft | 452 kts | 168° |
| 2026-05-08 18:24 | 49.59642 | 0.19793 | 36057 ft | 452 kts | 168° |
| 2026-05-08 18:24 | 49.53563 | 0.22270 | 36057 ft | 452 kts | 168° |
| 2026-05-08 18:25 | 49.47486 | 0.24721 | 36055 ft | 451 kts | 168° |
| 2026-05-08 18:25 | 49.41413 | 0.27150 | 36057 ft | 451 kts | 168° |
| 2026-05-08 18:26 | 49.35345 | 0.29574 | 36057 ft | 450 kts | 168° |
| 2026-05-08 18:26 | 49.29276 | 0.31986 | 36053 ft | 450 kts | 168° |
| 2026-05-08 18:27 | 49.24248 | 0.34084 | 36052 ft | 451 kts | 167° |
| 2026-05-08 18:27 | 49.17195 | 0.37120 | 36049 ft | 450 kts | 167° |
| 2026-05-08 18:28 | 49.11193 | 0.39662 | 36045 ft | 450 kts | 167° |
| 2026-05-08 18:28 | 49.05160 | 0.42180 | 36043 ft | 449 kts | 167° |
| 2026-05-08 18:29 | 48.99126 | 0.44693 | 36044 ft | 449 kts | 167° |
| 2026-05-08 18:29 | 48.93096 | 0.47203 | 36039 ft | 449 kts | 167° |
| 2026-05-08 18:30 | 48.87072 | 0.49706 | 36036 ft | 449 kts | 167° |
| 2026-05-08 18:30 | 48.81049 | 0.52200 | 36032 ft | 448 kts | 167° |
| 2026-05-08 18:31 | 48.75022 | 0.54652 | 36044 ft | 448 kts | 168° |
| 2026-05-08 18:31 | 48.68988 | 0.57005 | 36039 ft | 447 kts | 168° |
| 2026-05-08 18:32 | 48.62960 | 0.59339 | 36030 ft | 447 kts | 168° |
| 2026-05-08 18:32 | 48.56942 | 0.61686 | 36042 ft | 446 kts | 168° |
| 2026-05-08 18:33 | 48.50965 | 0.64009 | 36036 ft | 446 kts | 168° |
| 2026-05-08 18:33 | 48.44970 | 0.66418 | 36028 ft | 446 kts | 167° |
| 2026-05-08 18:34 | 48.38983 | 0.68883 | 36032 ft | 446 kts | 167° |
| 2026-05-08 18:34 | 48.33000 | 0.71338 | 36028 ft | 445 kts | 167° |
| 2026-05-08 18:35 | 48.27023 | 0.73761 | 36023 ft | 445 kts | 168° |
| 2026-05-08 18:35 | 48.21041 | 0.76148 | 36019 ft | 444 kts | 168° |
| 2026-05-08 18:36 | 48.15058 | 0.78487 | 36015 ft | 444 kts | 168° |
| 2026-05-08 18:36 | 48.10096 | 0.80415 | 36016 ft | 443 kts | 168° |
| 2026-05-08 18:37 | 48.04124 | 0.82746 | 36009 ft | 443 kts | 168° |
| 2026-05-08 18:37 | 47.98159 | 0.85094 | 36005 ft | 443 kts | 168° |
| 2026-05-08 18:38 | 47.92202 | 0.87426 | 36005 ft | 443 kts | 168° |
| 2026-05-08 18:38 | 47.86243 | 0.89737 | 36005 ft | 442 kts | 168° |
| 2026-05-08 18:39 | 47.80293 | 0.92044 | 35999 ft | 442 kts | 168° |
| 2026-05-08 18:39 | 47.74348 | 0.94346 | 36000 ft | 441 kts | 168° |
| 2026-05-08 18:40 | 47.68418 | 0.96647 | 35998 ft | 440 kts | 168° |
| 2026-05-08 18:40 | 47.62487 | 0.98931 | 35998 ft | 440 kts | 168° |
| 2026-05-08 18:41 | 47.56596 | 1.01189 | 35995 ft | 440 kts | 168° |
| 2026-05-08 18:41 | 47.50677 | 1.03460 | 35996 ft | 439 kts | 168° |
| 2026-05-08 18:42 | 47.44756 | 1.05708 | 35997 ft | 438 kts | 170° |
| 2026-05-08 18:42 | 47.38734 | 1.06345 | 35996 ft | 433 kts | 183° |
| 2026-05-08 18:43 | 47.32698 | 1.06187 | 35993 ft | 433 kts | 182° |
| 2026-05-08 18:43 | 47.26672 | 1.06062 | 35990 ft | 433 kts | 182° |
| 2026-05-08 18:44 | 47.20650 | 1.05929 | 35988 ft | 432 kts | 182° |
| 2026-05-08 18:44 | 47.14637 | 1.05785 | 35983 ft | 432 kts | 182° |
| 2026-05-08 18:45 | 47.08630 | 1.05629 | 35980 ft | 432 kts | 182° |
| 2026-05-08 18:45 | 47.02623 | 1.05553 | 35978 ft | 432 kts | 178° |
| 2026-05-08 18:46 | 46.96687 | 1.06566 | 35975 ft | 432 kts | 174° |
| 2026-05-08 18:46 | 46.90678 | 1.07666 | 35971 ft | 432 kts | 174° |
| 2026-05-08 18:47 | 46.84753 | 1.08734 | 35968 ft | 432 kts | 174° |
| 2026-05-08 18:47 | 46.78799 | 1.09806 | 35972 ft | 431 kts | 174° |
| 2026-05-08 18:48 | 46.72844 | 1.10884 | 35967 ft | 430 kts | 174° |
| 2026-05-08 18:48 | 46.66903 | 1.11956 | 35967 ft | 430 kts | 174° |
| 2026-05-08 18:49 | 46.60963 | 1.13013 | 35969 ft | 430 kts | 174° |
| 2026-05-08 18:49 | 46.55035 | 1.14072 | 35967 ft | 429 kts | 174° |
| 2026-05-08 18:50 | 46.49106 | 1.15134 | 35969 ft | 429 kts | 174° |
| 2026-05-08 18:50 | 46.43187 | 1.16188 | 35971 ft | 428 kts | 174° |
| 2026-05-08 18:51 | 46.37267 | 1.17238 | 35975 ft | 428 kts | 174° |
| 2026-05-08 18:51 | 46.31352 | 1.18288 | 35974 ft | 428 kts | 174° |
| 2026-05-08 18:52 | 46.25436 | 1.19336 | 35976 ft | 428 kts | 174° |
| 2026-05-08 18:52 | 46.19525 | 1.20379 | 35978 ft | 428 kts | 174° |
| 2026-05-08 18:53 | 46.13611 | 1.21420 | 35977 ft | 428 kts | 174° |
| 2026-05-08 18:53 | 46.07699 | 1.22463 | 35980 ft | 428 kts | 173° |
| 2026-05-08 18:54 | 46.01792 | 1.23500 | 35977 ft | 428 kts | 173° |
| 2026-05-08 18:54 | 45.95883 | 1.24532 | 35976 ft | 428 kts | 173° |
| 2026-05-08 18:55 | 45.87024 | 1.26080 | 35978 ft | 427 kts | 173° |
| 2026-05-08 18:56 | 45.81120 | 1.27101 | 35975 ft | 427 kts | 173° |
| 2026-05-08 18:56 | 45.75253 | 1.28123 | 35978 ft | 427 kts | 173° |
| 2026-05-08 18:57 | 45.69356 | 1.29147 | 35980 ft | 427 kts | 173° |
| 2026-05-08 18:57 | 45.63465 | 1.30171 | 35977 ft | 426 kts | 173° |
| 2026-05-08 18:58 | 45.57578 | 1.31189 | 35982 ft | 426 kts | 173° |
| 2026-05-08 18:58 | 45.51701 | 1.32205 | 35982 ft | 426 kts | 173° |
| 2026-05-08 18:59 | 45.45824 | 1.33213 | 35976 ft | 425 kts | 173° |
| 2026-05-08 18:59 | 45.39952 | 1.34216 | 35978 ft | 425 kts | 173° |
| 2026-05-08 19:00 | 45.34089 | 1.35221 | 35974 ft | 424 kts | 173° |
| 2026-05-08 19:00 | 45.28224 | 1.36214 | 35974 ft | 424 kts | 173° |
| 2026-05-08 19:01 | 45.22366 | 1.37218 | 35971 ft | 424 kts | 173° |
| 2026-05-08 19:01 | 45.16549 | 1.38220 | 35972 ft | 423 kts | 173° |
| 2026-05-08 19:02 | 45.10706 | 1.39209 | 35975 ft | 423 kts | 173° |
| 2026-05-08 19:02 | 45.04862 | 1.40189 | 35972 ft | 422 kts | 173° |
| 2026-05-08 19:03 | 44.99026 | 1.41183 | 35976 ft | 422 kts | 173° |
| 2026-05-08 19:03 | 44.93203 | 1.42168 | 35972 ft | 421 kts | 174° |
| 2026-05-08 19:04 | 44.87390 | 1.43181 | 35968 ft | 421 kts | 172° |
| 2026-05-08 19:04 | 44.81619 | 1.44511 | 35964 ft | 420 kts | 171° |
| 2026-05-08 19:05 | 44.75871 | 1.45986 | 35961 ft | 420 kts | 171° |
| 2026-05-08 19:05 | 44.70122 | 1.47420 | 35960 ft | 419 kts | 171° |
| 2026-05-08 19:06 | 44.64405 | 1.48789 | 35956 ft | 419 kts | 171° |
| 2026-05-08 19:06 | 44.58652 | 1.50145 | 35962 ft | 419 kts | 171° |
| 2026-05-08 19:07 | 44.52902 | 1.51490 | 35960 ft | 419 kts | 171° |
| 2026-05-08 19:07 | 44.47153 | 1.52841 | 35964 ft | 419 kts | 172° |
| 2026-05-08 19:08 | 44.41393 | 1.54200 | 35964 ft | 420 kts | 172° |
| 2026-05-08 19:08 | 44.35632 | 1.55567 | 35967 ft | 420 kts | 172° |
| 2026-05-08 19:09 | 44.29860 | 1.56927 | 35963 ft | 421 kts | 172° |
| 2026-05-08 19:09 | 44.24082 | 1.58279 | 35963 ft | 421 kts | 172° |
| 2026-05-08 19:10 | 44.18303 | 1.59627 | 35965 ft | 421 kts | 172° |
| 2026-05-08 19:10 | 44.12516 | 1.60976 | 35963 ft | 421 kts | 172° |
| 2026-05-08 19:11 | 44.06768 | 1.62318 | 35967 ft | 422 kts | 172° |
| 2026-05-08 19:11 | 44.00975 | 1.63667 | 35968 ft | 423 kts | 173° |
| 2026-05-08 19:12 | 43.95168 | 1.65013 | 35965 ft | 423 kts | 173° |
| 2026-05-08 19:12 | 43.89354 | 1.66364 | 35966 ft | 424 kts | 173° |
| 2026-05-08 19:13 | 43.83537 | 1.67716 | 35968 ft | 425 kts | 173° |
| 2026-05-08 19:13 | 43.77701 | 1.69069 | 35966 ft | 425 kts | 173° |
| 2026-05-08 19:14 | 43.71860 | 1.70415 | 35964 ft | 425 kts | 174° |
| 2026-05-08 19:14 | 43.66022 | 1.71757 | 35967 ft | 426 kts | 174° |
| 2026-05-08 19:15 | 43.60166 | 1.73098 | 35966 ft | 426 kts | 174° |
| 2026-05-08 19:15 | 43.54316 | 1.74442 | 35968 ft | 427 kts | 174° |
| 2026-05-08 19:16 | 43.48491 | 1.75771 | 35965 ft | 427 kts | 174° |
| 2026-05-08 19:16 | 43.42624 | 1.77105 | 35968 ft | 427 kts | 174° |
| 2026-05-08 19:17 | 43.36758 | 1.78439 | 35967 ft | 428 kts | 174° |
| 2026-05-08 19:17 | 43.30880 | 1.79772 | 35971 ft | 428 kts | 175° |
| 2026-05-08 19:18 | 43.25001 | 1.81108 | 35973 ft | 428 kts | 175° |
| 2026-05-08 19:18 | 43.19114 | 1.82442 | 35967 ft | 429 kts | 175° |
| 2026-05-08 19:19 | 43.13225 | 1.83769 | 35979 ft | 429 kts | 175° |
| 2026-05-08 19:19 | 43.07326 | 1.85093 | 35976 ft | 429 kts | 175° |
| 2026-05-08 19:20 | 43.01427 | 1.86421 | 35988 ft | 430 kts | 175° |
| 2026-05-08 19:20 | 42.95526 | 1.87755 | 35983 ft | 430 kts | 175° |
| 2026-05-08 19:21 | 42.89622 | 1.89085 | 35984 ft | 430 kts | 175° |
| 2026-05-08 19:21 | 42.83717 | 1.90410 | 35988 ft | 430 kts | 176° |
| 2026-05-08 19:22 | 42.77850 | 1.91719 | 35995 ft | 430 kts | 176° |
| 2026-05-08 19:22 | 42.71949 | 1.93031 | 35999 ft | 429 kts | 176° |
| 2026-05-08 19:23 | 42.66049 | 1.94339 | 36003 ft | 429 kts | 176° |
| 2026-05-08 19:23 | 42.60167 | 1.95642 | 36013 ft | 428 kts | 176° |
| 2026-05-08 19:24 | 42.54300 | 1.96955 | 36017 ft | 427 kts | 176° |
| 2026-05-08 19:24 | 42.48433 | 1.98258 | 36024 ft | 427 kts | 176° |
| 2026-05-08 19:25 | 42.42566 | 1.99550 | 36028 ft | 427 kts | 177° |
| 2026-05-08 19:25 | 42.36702 | 2.00808 | 36029 ft | 425 kts | 180° |
| 2026-05-08 19:26 | 42.30828 | 2.01397 | 36032 ft | 423 kts | 182° |
| 2026-05-08 19:26 | 42.25941 | 2.01856 | 36038 ft | 423 kts | 182° |
| 2026-05-08 19:27 | 42.20060 | 2.02417 | 36039 ft | 424 kts | 182° |
| 2026-05-08 19:27 | 42.13217 | 2.03065 | 36044 ft | 425 kts | 182° |
| 2026-05-08 19:28 | 42.08275 | 2.03535 | 36040 ft | 425 kts | 182° |
| 2026-05-08 19:28 | 42.02416 | 2.04083 | 36042 ft | 425 kts | 182° |
| 2026-05-08 19:29 | 41.96513 | 2.04637 | 36042 ft | 425 kts | 182° |
| 2026-05-08 19:29 | 41.90608 | 2.05198 | 36044 ft | 426 kts | 183° |
| 2026-05-08 19:30 | 41.84697 | 2.05746 | 36043 ft | 426 kts | 183° |
| 2026-05-08 19:30 | 41.78780 | 2.06298 | 36039 ft | 426 kts | 183° |
| 2026-05-08 19:31 | 41.72860 | 2.06856 | 36037 ft | 427 kts | 184° |
| 2026-05-08 19:31 | 41.66937 | 2.07406 | 36033 ft | 426 kts | 184° |
| 2026-05-08 19:32 | 41.61017 | 2.07962 | 36028 ft | 426 kts | 184° |
| 2026-05-08 19:32 | 41.55096 | 2.08513 | 36036 ft | 426 kts | 184° |
| 2026-05-08 19:33 | 41.49216 | 2.09064 | 36027 ft | 427 kts | 185° |
| 2026-05-08 19:33 | 41.43336 | 2.09609 | 36034 ft | 426 kts | 185° |
| 2026-05-08 19:34 | 41.37414 | 2.10158 | 36026 ft | 426 kts | 185° |
| 2026-05-08 19:34 | 41.31496 | 2.10732 | 36024 ft | 430 kts | 182° |
| 2026-05-08 19:35 | 41.25574 | 2.12598 | 36027 ft | 440 kts | 174° |
| 2026-05-08 19:35 | 41.19653 | 2.14724 | 36028 ft | 441 kts | 175° |
| 2026-05-08 19:36 | 41.13729 | 2.16835 | 36027 ft | 441 kts | 175° |
| 2026-05-08 19:36 | 41.07795 | 2.18943 | 36030 ft | 441 kts | 175° |
| 2026-05-08 19:37 | 41.01865 | 2.21051 | 36028 ft | 441 kts | 175° |
| 2026-05-08 19:37 | 40.95969 | 2.23137 | 36023 ft | 441 kts | 176° |
| 2026-05-08 19:37 | 40.92971 | 2.24195 | 35732 ft | 439 kts | 176° |
| 2026-05-08 19:38 | 40.90066 | 2.25222 | 35048 ft | 438 kts | 176° |
| 2026-05-08 19:38 | 40.87072 | 2.26277 | 34285 ft | 440 kts | 177° |
| 2026-05-08 19:38 | 40.84103 | 2.27319 | 33426 ft | 443 kts | 177° |
| 2026-05-08 19:38 | 40.81154 | 2.28355 | 32536 ft | 446 kts | 176° |
| 2026-05-08 19:39 | 40.78122 | 2.29426 | 31870 ft | 444 kts | 175° |
| 2026-05-08 19:39 | 40.75189 | 2.30467 | 31261 ft | 440 kts | 175° |
| 2026-05-08 19:39 | 40.72243 | 2.31510 | 30668 ft | 437 kts | 174° |
| 2026-05-08 19:39 | 40.69313 | 2.32541 | 30088 ft | 434 kts | 174° |
| 2026-05-08 19:40 | 40.66399 | 2.33562 | 29435 ft | 431 kts | 174° |
| 2026-05-08 19:40 | 40.63516 | 2.34569 | 28833 ft | 427 kts | 174° |
| 2026-05-08 19:40 | 40.60663 | 2.35567 | 28261 ft | 422 kts | 174° |
| 2026-05-08 19:40 | 40.57843 | 2.36556 | 27702 ft | 417 kts | 174° |
| 2026-05-08 19:41 | 40.55049 | 2.37536 | 27155 ft | 413 kts | 173° |
| 2026-05-08 19:41 | 40.52297 | 2.38507 | 26495 ft | 407 kts | 172° |
| 2026-05-08 19:41 | 40.49632 | 2.39800 | 25763 ft | 410 kts | 163° |
| 2026-05-08 19:41 | 40.47139 | 2.41616 | 24897 ft | 410 kts | 155° |
| 2026-05-08 19:42 | 40.44745 | 2.43593 | 24051 ft | 403 kts | 155° |
| 2026-05-08 19:42 | 40.42384 | 2.45542 | 23468 ft | 404 kts | 155° |
| 2026-05-08 19:42 | 40.39940 | 2.47536 | 22950 ft | 421 kts | 155° |
| 2026-05-08 19:42 | 40.37402 | 2.49595 | 22440 ft | 435 kts | 154° |
| 2026-05-08 19:43 | 40.34792 | 2.51711 | 21924 ft | 447 kts | 154° |
| 2026-05-08 19:43 | 40.32021 | 2.53544 | 21412 ft | 445 kts | 167° |
| 2026-05-08 19:43 | 40.29020 | 2.54367 | 20907 ft | 439 kts | 182° |
| 2026-05-08 19:43 | 40.26005 | 2.54140 | 20430 ft | 431 kts | 194° |
| 2026-05-08 19:44 | 40.23138 | 2.53557 | 20083 ft | 409 kts | 194° |
| 2026-05-08 19:44 | 40.20439 | 2.53014 | 19837 ft | 377 kts | 194° |
| 2026-05-08 19:44 | 40.17928 | 2.52508 | 19394 ft | 357 kts | 195° |
| 2026-05-08 19:44 | 40.15521 | 2.52011 | 18860 ft | 343 kts | 195° |
| 2026-05-08 19:45 | 40.13216 | 2.51530 | 18388 ft | 329 kts | 195° |
| 2026-05-08 19:45 | 40.11002 | 2.51069 | 17947 ft | 315 kts | 195° |
| 2026-05-08 19:45 | 40.08893 | 2.50632 | 17581 ft | 300 kts | 195° |
| 2026-05-08 19:45 | 40.06856 | 2.50206 | 17049 ft | 294 kts | 195° |
| 2026-05-08 19:46 | 40.04846 | 2.49782 | 16448 ft | 291 kts | 195° |
| 2026-05-08 19:46 | 40.02855 | 2.49365 | 15854 ft | 289 kts | 195° |
| 2026-05-08 19:46 | 39.98910 | 2.48549 | 14701 ft | 285 kts | 194° |
| 2026-05-08 19:47 | 39.96961 | 2.48147 | 14151 ft | 283 kts | 194° |
| 2026-05-08 19:47 | 39.95019 | 2.47750 | 13585 ft | 281 kts | 194° |
| 2026-05-08 19:47 | 39.93092 | 2.47357 | 12971 ft | 279 kts | 193° |
| 2026-05-08 19:47 | 39.91185 | 2.46966 | 12388 ft | 277 kts | 193° |
| 2026-05-08 19:48 | 39.89290 | 2.46578 | 11804 ft | 274 kts | 193° |
| 2026-05-08 19:48 | 39.87438 | 2.46200 | 11233 ft | 272 kts | 193° |
| 2026-05-08 19:48 | 39.85573 | 2.45818 | 10670 ft | 270 kts | 192° |
| 2026-05-08 19:48 | 39.83725 | 2.45441 | 10125 ft | 268 kts | 192° |
| 2026-05-08 19:49 | 39.81887 | 2.45066 | 9587 ft | 267 kts | 192° |
| 2026-05-08 19:49 | 39.80060 | 2.44691 | 9084 ft | 265 kts | 191° |
| 2026-05-08 19:49 | 39.78247 | 2.44321 | 8595 ft | 263 kts | 191° |
| 2026-05-08 19:49 | 39.76445 | 2.43955 | 8091 ft | 262 kts | 191° |
| 2026-05-08 19:50 | 39.74652 | 2.43590 | 7646 ft | 258 kts | 191° |
| 2026-05-08 19:50 | 39.72894 | 2.43233 | 7333 ft | 252 kts | 191° |
| 2026-05-08 19:50 | 39.71176 | 2.42884 | 7038 ft | 248 kts | 191° |
| 2026-05-08 19:50 | 39.69474 | 2.42539 | 6686 ft | 247 kts | 190° |
| 2026-05-08 19:51 | 39.67771 | 2.42192 | 6301 ft | 247 kts | 190° |
| 2026-05-08 19:51 | 39.66074 | 2.41843 | 5914 ft | 247 kts | 189° |
| 2026-05-08 19:51 | 39.64385 | 2.41500 | 5576 ft | 245 kts | 189° |
| 2026-05-08 19:51 | 39.62708 | 2.41162 | 5500 ft | 245 kts | 189° |
| 2026-05-08 19:52 | 39.61027 | 2.40820 | 5152 ft | 244 kts | 188° |
| 2026-05-08 19:52 | 39.59351 | 2.40479 | 4777 ft | 244 kts | 188° |
| 2026-05-08 19:52 | 39.57732 | 2.40150 | 4594 ft | 234 kts | 188° |
| 2026-05-08 19:52 | 39.56210 | 2.40029 | 4445 ft | 224 kts | 171° |
| 2026-05-08 19:53 | 39.54701 | 2.40704 | 4207 ft | 218 kts | 146° |
| 2026-05-08 19:53 | 39.53621 | 2.42010 | 3949 ft | 216 kts | 124° |
| 2026-05-08 19:53 | 39.52759 | 2.43630 | 3683 ft | 215 kts | 123° |
| 2026-05-08 19:53 | 39.51908 | 2.45218 | 3421 ft | 214 kts | 123° |
| 2026-05-08 19:54 | 39.51059 | 2.46794 | 3208 ft | 211 kts | 123° |
| 2026-05-08 19:54 | 39.50232 | 2.48324 | 3078 ft | 204 kts | 124° |
| 2026-05-08 19:54 | 39.49699 | 2.49311 | 3004 ft | 198 kts | 123° |
| 2026-05-08 19:54 | 39.48684 | 2.51183 | 2662 ft | 189 kts | 123° |
| 2026-05-08 19:55 | 39.47938 | 2.52572 | 2328 ft | 186 kts | 121° |
| 2026-05-08 19:55 | 39.47488 | 2.54087 | 2297 ft | 179 kts | 99° |
| 2026-05-08 19:55 | 39.47547 | 2.55647 | 2299 ft | 168 kts | 77° |
| 2026-05-08 19:55 | 39.48026 | 2.56985 | 2295 ft | 162 kts | 60° |
| 2026-05-08 19:56 | 39.48616 | 2.58222 | 2233 ft | 161 kts | 60° |
| 2026-05-08 19:56 | 39.49192 | 2.59434 | 2093 ft | 155 kts | 60° |
| 2026-05-08 19:56 | 39.49752 | 2.60611 | 1901 ft | 151 kts | 60° |
| 2026-05-08 19:56 | 39.50301 | 2.61765 | 1714 ft | 150 kts | 61° |
| 2026-05-08 19:57 | 39.50845 | 2.62912 | 1503 ft | 150 kts | 61° |
| 2026-05-08 19:57 | 39.51380 | 2.64038 | 1306 ft | 142 kts | 61° |
| 2026-05-08 19:57 | 39.51895 | 2.65121 | 1127 ft | 139 kts | 62° |
| 2026-05-08 19:57 | 39.52398 | 2.66182 | 938 ft | 138 kts | 60° |
| 2026-05-08 19:58 | 39.52899 | 2.67240 | 752 ft | 138 kts | 59° |
| 2026-05-08 19:58 | 39.53401 | 2.68298 | 566 ft | 137 kts | 59° |
| 2026-05-08 19:58 | 39.53898 | 2.69348 | 379 ft | 136 kts | 59° |
| 2026-05-08 19:58 | 39.54391 | 2.70387 | 204 ft | 135 kts | 59° |
| 2026-05-08 19:59 | 39.54877 | 2.71411 | 50 ft | 132 kts | 58° |
| 2026-05-08 19:59 | 39.55297 | 2.72292 | 30 ft | 81 kts | 58° |
| 2026-05-08 19:59 | 39.55489 | 2.72702 | 30 ft | 45 kts | 59° |
| 2026-05-08 19:59 | 39.55640 | 2.73026 | 30 ft | 39 kts | 59° |
| 2026-05-08 20:00 | 39.55719 | 2.73309 | 30 ft | 18 kts | 87° |
| 2026-05-08 20:00 | 39.55720 | 2.73413 | 30 ft | 0 kts | 90° |
| 2026-05-08 20:00 | 39.55718 | 2.73416 | 30 ft | 4 kts | 116° |
| 2026-05-08 20:00 | 39.55677 | 2.73459 | 30 ft | 7 kts | 150° |
| 2026-05-08 20:01 | 39.55636 | 2.73489 | 30 ft | 6 kts | 149° |
| 2026-05-08 20:01 | 39.55601 | 2.73517 | 30 ft | 6 kts | 149° |
| 2026-05-08 20:01 | 39.55569 | 2.73541 | 30 ft | 5 kts | 149° |
| 2026-05-08 20:01 | 39.55520 | 2.73579 | 30 ft | 15 kts | 149° |
| 2026-05-08 20:02 | 39.55422 | 2.73658 | 30 ft | 18 kts | 148° |
| 2026-05-08 20:02 | 39.55309 | 2.73749 | 30 ft | 20 kts | 148° |
| 2026-05-08 20:02 | 39.55248 | 2.73799 | 30 ft | 0 kts | 148° |
| 2026-05-08 20:02 | 39.55247 | 2.73799 | 30 ft | 0 kts | 148° |
| 2026-05-08 20:03 | 39.55178 | 2.73809 | 30 ft | 11 kts | 218° |
| 2026-05-08 20:03 | 39.55182 | 2.73736 | 30 ft | 16 kts | 281° |
| 2026-05-08 20:03 | 39.55156 | 2.73599 | 30 ft | 15 kts | 241° |
| 2026-05-08 20:04 | 39.55101 | 2.73486 | 30 ft | 14 kts | 234° |
| 2026-05-08 20:04 | 39.55060 | 2.73417 | 30 ft | 6 kts | 232° |
| 2026-05-08 20:04 | 39.55033 | 2.73382 | 30 ft | 5 kts | 206° |
| 2026-05-08 20:04 | 39.55001 | 2.73387 | 30 ft | 4 kts | 167° |
| 2026-05-08 20:05 | 39.54988 | 2.73392 | 30 ft | 1 kts | 164° |
| 2026-05-08 20:05 | 39.54983 | 2.73394 | 30 ft | 0 kts | 164° |